createdAt,value
2022-09-07T00:01:27.510Z,6.80
2022-09-07T00:03:57.674Z,5.60
2022-09-07T00:06:26.620Z,7.20
2022-09-07T00:08:55.520Z,6.40
2022-09-07T00:11:24.896Z,6.20
2022-09-07T00:13:53.489Z,6.80
2022-09-07T00:16:29.922Z,8.00
2022-09-07T00:19:01.588Z,7.70
2022-09-07T00:21:30.983Z,7.10
2022-09-07T00:24:00.169Z,6.90
2022-09-07T00:26:31.634Z,7.40
2022-09-07T00:29:02.548Z,7.50
2022-09-07T00:31:32.296Z,8.50
2022-09-07T00:34:03.372Z,7.70
2022-09-07T00:36:31.873Z,7.50
2022-09-07T00:39:01.201Z,8.30
2022-09-07T00:41:29.835Z,7.30
2022-09-07T00:44:19.731Z,8.20
2022-09-07T00:46:48.854Z,7.80
2022-09-07T00:49:21.974Z,6.80
2022-09-07T00:52:01.373Z,7.50
2022-09-07T00:54:44.015Z,7.80
2022-09-07T00:57:14.016Z,7.70
2022-09-07T00:59:47.425Z,7.90
2022-09-07T01:02:17.780Z,7.80
2022-09-07T01:04:52.149Z,6.70
2022-09-07T01:07:21.119Z,7.00
2022-09-07T01:09:51.235Z,7.20
2022-09-07T01:12:19.738Z,6.90
2022-09-07T01:14:53.190Z,6.80
2022-09-07T01:17:36.361Z,7.10
2022-09-07T01:20:44.751Z,7.80
2022-09-07T01:24:01.693Z,6.80
2022-09-07T01:27:12.341Z,6.60
2022-09-07T01:29:53.256Z,7.00
2022-09-07T01:32:35.824Z,7.20
2022-09-07T01:35:12.513Z,6.50
2022-09-07T01:38:11.369Z,7.10
2022-09-07T01:40:49.729Z,7.30
2022-09-07T01:43:39.618Z,7.40
2022-09-07T01:46:17.205Z,6.80
2022-09-07T01:48:50.146Z,6.90
2022-09-07T01:51:22.086Z,7.60
2022-09-07T01:53:56.882Z,8.10
2022-09-07T01:56:33.568Z,8.40
2022-09-07T01:59:09.698Z,8.10
2022-09-07T02:01:47.654Z,7.70
2022-09-07T02:04:22.769Z,8.00
2022-09-07T02:07:24.812Z,7.70
2022-09-07T02:10:02.412Z,7.80
2022-09-07T02:12:45.734Z,8.00
2022-09-07T02:15:19.265Z,7.90
2022-09-07T02:17:58.090Z,9.50
2022-09-07T02:20:37.221Z,8.70
2022-09-07T02:23:11.849Z,8.00
2022-09-07T02:25:53.130Z,8.00
2022-09-07T02:28:27.731Z,7.50
2022-09-07T02:30:57.031Z,7.90
2022-09-07T02:33:26.104Z,8.80
2022-09-07T02:35:55.115Z,8.70
2022-09-07T02:38:25.561Z,8.80
2022-09-07T02:40:56.459Z,9.60
2022-09-07T02:43:27.150Z,9.40
2022-09-07T02:46:28.739Z,8.50
2022-09-07T02:49:36.355Z,8.70
2022-09-07T02:52:15.268Z,9.80
2022-09-07T02:54:50.398Z,9.00
2022-09-07T02:57:29.753Z,8.70
2022-09-07T03:00:12.851Z,7.80
2022-09-07T03:02:56.762Z,8.80
2022-09-07T03:05:32.834Z,8.10
2022-09-07T03:08:14.923Z,7.20
2022-09-07T03:10:44.346Z,7.80
2022-09-07T03:13:27.573Z,8.20
2022-09-07T03:15:57.361Z,8.50
2022-09-07T03:18:28.051Z,7.50
2022-09-07T03:20:57.667Z,7.80
2022-09-07T03:23:26.505Z,6.40
2022-09-07T03:25:55.259Z,7.00
2022-09-07T03:28:24.098Z,6.10
2022-09-07T03:30:53.155Z,6.30
2022-09-07T03:33:21.968Z,5.90
2022-09-07T03:36:00.185Z,7.20
2022-09-07T03:38:30.669Z,6.50
2022-09-07T03:41:01.413Z,6.20
2022-09-07T03:43:31.324Z,7.30
2022-09-07T03:46:02.316Z,6.80
2022-09-07T03:48:32.771Z,6.30
2022-09-07T03:51:07.932Z,6.00
2022-09-07T03:53:39.645Z,6.50
2022-09-07T03:56:11.634Z,6.10
2022-09-07T03:58:40.707Z,6.60
2022-09-07T04:01:12.968Z,6.80
2022-09-07T04:03:42.889Z,6.10
2022-09-07T04:08:41.493Z,7.00
2022-09-07T04:11:14.918Z,7.00
2022-09-07T04:13:44.487Z,6.80
2022-09-07T04:16:20.590Z,6.80
2022-09-07T04:18:50.807Z,6.70
2022-09-07T04:21:19.778Z,7.20
2022-09-07T04:23:49.107Z,7.00
2022-09-07T04:26:30.283Z,7.50
2022-09-07T04:29:01.800Z,6.80
2022-09-07T04:31:30.933Z,8.20
2022-09-07T04:33:59.865Z,7.70
2022-09-07T04:36:29.051Z,6.60
2022-09-07T04:39:00.593Z,7.60
2022-09-07T04:41:31.718Z,7.30
2022-09-07T04:44:03.728Z,7.10
2022-09-07T04:46:34.929Z,7.60
2022-09-07T04:49:07.097Z,6.90
2022-09-07T04:51:37.286Z,7.10
2022-09-07T04:54:06.573Z,7.00
2022-09-07T04:56:35.191Z,7.50
2022-09-07T04:59:04.445Z,7.70
2022-09-07T05:01:33.485Z,7.20
2022-09-07T05:04:02.757Z,6.30
2022-09-07T05:06:32.909Z,7.00
2022-09-07T05:09:02.075Z,8.00
2022-09-07T05:11:30.595Z,7.60
2022-09-07T05:14:02.112Z,8.40
2022-09-07T05:16:31.728Z,7.10
2022-09-07T05:19:03.143Z,7.30
2022-09-07T05:21:33.727Z,7.00
2022-09-07T05:26:33.603Z,7.70
2022-09-07T05:31:53.860Z,7.70
2022-09-07T05:34:30.969Z,8.20
2022-09-07T05:37:00.845Z,7.90
2022-09-07T05:41:59.218Z,7.40
2022-09-07T05:47:12.338Z,6.90
2022-09-07T05:49:41.219Z,7.20
2022-09-07T05:52:10.507Z,7.00
2022-09-07T05:54:39.561Z,7.50
2022-09-07T05:57:11.345Z,6.50
2022-09-07T05:59:45.118Z,6.70
2022-09-07T06:02:15.647Z,7.60
2022-09-07T06:04:44.481Z,7.00
2022-09-07T06:07:22.789Z,6.70
2022-09-07T06:12:48.947Z,6.60
2022-09-07T06:15:18.578Z,6.50
2022-09-07T06:17:47.108Z,6.30
2022-09-07T06:20:15.701Z,7.00
2022-09-07T06:22:44.685Z,7.40
2022-09-07T06:25:13.339Z,6.40
2022-09-07T06:27:42.486Z,6.40
2022-09-07T06:30:13.132Z,6.70
2022-09-07T06:35:16.634Z,7.20
2022-09-07T06:37:45.551Z,6.70
2022-09-07T06:40:14.291Z,6.90
2022-09-07T06:42:43.746Z,6.40
2022-09-07T06:45:13.234Z,6.80
2022-09-07T06:47:41.714Z,6.80
2022-09-07T06:50:11.491Z,6.90
2022-09-07T06:55:29.403Z,7.40
2022-09-07T06:57:57.993Z,6.70
2022-09-07T07:00:26.536Z,7.50
2022-09-07T07:02:55.912Z,7.50
2022-09-07T07:05:24.509Z,7.00
2022-09-07T07:07:53.819Z,7.20
2022-09-07T07:10:24.906Z,7.00
2022-09-07T07:12:57.984Z,6.70
2022-09-07T07:15:29.135Z,6.70
2022-09-07T07:18:09.554Z,7.10
2022-09-07T07:20:47.537Z,7.00
2022-09-07T07:23:16.450Z,7.40
2022-09-07T07:25:45.147Z,7.20
2022-09-07T07:31:08.955Z,6.70
2022-09-07T07:33:42.498Z,6.40
2022-09-07T07:36:20.764Z,7.90
2022-09-07T07:39:00.408Z,7.00
2022-09-07T07:44:21.727Z,7.20
2022-09-07T07:46:51.759Z,6.70
2022-09-07T07:49:20.529Z,6.60
2022-09-07T07:54:40.569Z,8.90
2022-09-07T07:57:37.857Z,6.80
2022-09-07T08:00:23.559Z,6.40
2022-09-07T08:03:02.018Z,6.40
2022-09-07T08:05:30.772Z,6.10
2022-09-07T08:07:59.428Z,6.30
2022-09-07T08:10:30.067Z,6.10
2022-09-07T08:12:58.552Z,6.30
2022-09-07T08:15:27.101Z,5.60
2022-09-07T08:17:55.971Z,5.60
2022-09-07T08:20:24.425Z,6.40
2022-09-07T08:22:52.941Z,7.70
2022-09-07T08:25:22.205Z,6.30
2022-09-07T08:27:50.909Z,6.40
2022-09-07T08:30:19.408Z,5.90
2022-09-07T08:32:48.404Z,7.40
2022-09-07T08:35:16.876Z,6.50
2022-09-07T08:37:45.338Z,6.10
2022-09-07T08:40:19.578Z,5.80
2022-09-07T08:42:54.440Z,6.50
2022-09-07T08:45:49.347Z,6.80
2022-09-07T08:48:23.261Z,5.70
2022-09-07T08:51:26.460Z,6.20
2022-09-07T08:53:55.312Z,5.80
2022-09-07T08:56:33.779Z,5.60
2022-09-07T08:59:14.060Z,6.30
2022-09-07T09:02:26.301Z,6.40
2022-09-07T09:05:16.150Z,5.90
2022-09-07T09:07:44.376Z,6.00
2022-09-07T09:10:20.667Z,5.70
2022-09-07T09:13:06.375Z,5.00
2022-09-07T09:15:47.874Z,5.30
2022-09-07T09:18:36.479Z,5.20
2022-09-07T09:21:08.220Z,5.20
2022-09-07T09:23:42.318Z,4.80
2022-09-07T09:26:25.751Z,5.20
2022-09-07T09:28:55.649Z,5.70
2022-09-07T09:31:36.292Z,5.50
2022-09-07T09:34:08.154Z,5.30
2022-09-07T09:36:51.619Z,4.70
2022-09-07T09:39:32.583Z,5.40
2022-09-07T09:42:26.589Z,5.80
2022-09-07T09:45:05.161Z,5.60
2022-09-07T09:47:40.647Z,6.40
2022-09-07T09:53:33.145Z,5.80
2022-09-07T09:56:07.042Z,6.00
2022-09-07T10:01:35.434Z,6.00
2022-09-07T10:04:24.686Z,5.90
2022-09-07T10:07:07.834Z,5.90
2022-09-07T10:09:40.424Z,6.40
2022-09-07T10:12:26.687Z,6.50
2022-09-07T10:14:56.946Z,6.60
2022-09-07T10:17:33.695Z,6.20
2022-09-07T10:20:30.091Z,6.40
2022-09-07T10:23:00.243Z,6.30
2022-09-07T10:25:38.017Z,6.70
2022-09-07T10:28:16.121Z,7.10
2022-09-07T10:31:02.796Z,5.60
2022-09-07T10:37:09.874Z,6.50
2022-09-07T10:39:43.274Z,6.10
2022-09-07T10:42:37.228Z,6.50
2022-09-07T10:45:37.528Z,6.20
2022-09-07T10:51:09.786Z,6.00
2022-09-07T10:54:36.435Z,6.00
2022-09-07T10:57:22.175Z,5.60
2022-09-07T11:00:08.279Z,6.40
2022-09-07T11:03:28.551Z,6.50
2022-09-07T11:06:08.966Z,6.10
2022-09-07T11:09:20.991Z,6.70
2022-09-07T11:12:02.533Z,6.40
2022-09-07T11:14:42.557Z,6.70
2022-09-07T11:20:08.941Z,6.40
2022-09-07T11:22:52.656Z,6.80
2022-09-07T11:25:31.712Z,6.90
2022-09-07T11:28:16.780Z,7.10
2022-09-07T11:30:59.804Z,6.50
2022-09-07T11:33:40.444Z,7.20
2022-09-07T11:36:14.397Z,7.00
2022-09-07T11:38:54.568Z,6.80
2022-09-07T11:44:27.967Z,7.40
2022-09-07T11:47:09.212Z,7.60
2022-09-07T11:49:37.637Z,6.60
2022-09-07T11:52:29.437Z,6.40
2022-09-07T11:55:04.788Z,6.40
2022-09-07T11:57:45.497Z,7.00
2022-09-07T12:00:29.692Z,7.00
2022-09-07T12:03:00.228Z,6.20
2022-09-07T12:06:00.818Z,6.40
2022-09-07T12:08:46.305Z,6.30
2022-09-07T12:11:37.952Z,7.30
2022-09-07T12:14:29.407Z,7.10
2022-09-07T12:17:24.101Z,6.30
2022-09-07T12:20:39.589Z,5.90
2022-09-07T12:23:17.321Z,6.50
2022-09-07T12:25:49.056Z,6.00
2022-09-07T12:28:37.772Z,6.30
2022-09-07T12:31:13.196Z,5.70
2022-09-07T12:33:41.923Z,6.30
2022-09-07T12:36:26.580Z,6.20
2022-09-07T12:39:26.150Z,6.60
2022-09-07T12:45:30.443Z,5.80
2022-09-07T12:48:04.574Z,6.60
2022-09-07T12:51:01.059Z,6.30
2022-09-07T12:53:47.717Z,6.20
2022-09-07T12:56:34.612Z,6.00
2022-09-07T12:59:37.360Z,5.40
2022-09-07T13:02:35.298Z,6.30
2022-09-07T13:05:29.085Z,8.20
2022-09-07T13:08:32.015Z,6.80
2022-09-07T13:11:19.768Z,5.60
2022-09-07T13:14:09.408Z,6.70
2022-09-07T13:19:51.949Z,5.80
2022-09-07T13:22:43.736Z,6.30
2022-09-07T13:25:24.022Z,6.50
2022-09-07T13:27:57.552Z,6.00
2022-09-07T13:30:29.973Z,5.60
2022-09-07T13:33:37.911Z,6.20
2022-09-07T13:36:09.808Z,6.10
2022-09-07T13:38:42.986Z,6.60
2022-09-07T13:41:19.081Z,6.80
2022-09-07T13:43:51.551Z,6.10
2022-09-07T13:46:36.690Z,6.40
2022-09-07T13:49:33.048Z,5.90
2022-09-07T13:52:28.518Z,5.70
2022-09-07T13:55:03.360Z,6.00
2022-09-07T13:57:37.877Z,6.70
2022-09-07T14:00:20.699Z,5.90
2022-09-07T14:02:56.989Z,6.30
2022-09-07T14:05:26.265Z,7.50
2022-09-07T14:07:55.225Z,7.10
2022-09-07T14:10:26.450Z,6.80
2022-09-07T14:13:12.429Z,6.10
2022-09-07T14:15:47.756Z,6.50
2022-09-07T14:18:20.310Z,6.30
2022-09-07T14:20:52.385Z,6.00
2022-09-07T14:23:30.354Z,6.10
2022-09-07T14:26:20.544Z,6.10
2022-09-07T14:31:24.373Z,6.20
2022-09-07T14:33:58.919Z,6.80
2022-09-07T14:36:44.693Z,6.50
2022-09-07T14:39:17.550Z,6.80
2022-09-07T14:41:46.967Z,6.50
2022-09-07T14:44:38.718Z,5.90
2022-09-07T14:47:24.922Z,6.10
2022-09-07T14:49:57.330Z,6.90
2022-09-07T14:52:42.413Z,5.80
2022-09-07T14:55:48.825Z,6.10
2022-09-07T14:58:17.460Z,6.20
2022-09-07T15:01:36.798Z,6.30
2022-09-07T15:07:00.994Z,8.00
2022-09-07T15:08:59.834Z,6.30
2022-09-07T15:11:34.131Z,7.70
2022-09-07T15:14:09.038Z,6.80
2022-09-07T15:16:43.098Z,5.70
2022-09-07T15:19:18.939Z,6.60
2022-09-07T15:21:48.239Z,6.20
2022-09-07T15:24:16.796Z,7.20
2022-09-07T15:27:06.448Z,6.60
2022-09-07T15:32:09.517Z,6.90
2022-09-07T15:34:38.399Z,6.60
2022-09-07T15:39:56.756Z,6.60
2022-09-07T15:45:15.954Z,6.50
2022-09-07T15:47:50.740Z,7.30
2022-09-07T15:50:23.084Z,6.40
2022-09-07T15:52:57.551Z,6.50
2022-09-07T15:55:29.308Z,7.40
2022-09-07T15:58:11.070Z,6.80
2022-09-07T16:00:40.826Z,6.70
2022-09-07T16:03:10.301Z,6.10
2022-09-07T16:05:44.604Z,7.50
2022-09-07T16:14:11.973Z,6.80
2022-09-07T16:19:29.778Z,7.30
2022-09-07T16:21:58.456Z,7.40
2022-09-07T16:24:28.654Z,7.90
2022-09-07T16:26:57.721Z,7.60
2022-09-07T16:29:26.772Z,8.00
2022-09-07T16:34:44.983Z,9.10
2022-09-07T16:37:13.483Z,11.50
2022-09-07T16:39:42.167Z,11.20
2022-09-07T16:42:11.220Z,11.20
2022-09-07T16:44:39.881Z,9.00
2022-09-07T16:47:08.440Z,9.20
2022-09-07T16:49:39.127Z,8.50
2022-09-07T16:52:10.957Z,8.50
2022-09-07T16:54:40.435Z,8.40
2022-09-07T16:57:08.940Z,8.40
2022-09-07T16:59:37.419Z,8.80
2022-09-07T17:02:28.125Z,9.80
2022-09-07T17:05:23.503Z,13.50
2022-09-07T17:08:18.504Z,10.90
2022-09-07T17:11:16.480Z,15.50
2022-09-07T17:14:14.627Z,15.70
2022-09-07T17:17:05.106Z,15.80
2022-09-07T17:19:50.870Z,40.40
2022-09-07T17:22:42.616Z,14.70
2022-09-07T17:25:33.399Z,12.10
2022-09-07T17:28:29.222Z,11.00
2022-09-07T17:34:38.758Z,12.40
2022-09-07T17:37:20.909Z,12.50
2022-09-07T17:39:59.567Z,11.60
2022-09-07T17:45:44.436Z,9.70
2022-09-07T17:48:13.425Z,10.50
2022-09-07T17:50:42.597Z,9.80
2022-09-07T17:53:11.523Z,10.40
2022-09-07T17:55:40.339Z,13.90
2022-09-07T17:58:08.881Z,10.80
2022-09-07T18:00:37.981Z,11.20
2022-09-07T18:03:07.391Z,10.20
2022-09-07T18:05:36.450Z,11.80
2022-09-07T18:08:05.911Z,11.90
2022-09-07T18:13:35.020Z,12.40
2022-09-07T18:16:19.149Z,11.20
2022-09-07T18:18:48.379Z,13.00
2022-09-07T18:21:23.521Z,11.50
2022-09-07T18:23:56.503Z,11.80
2022-09-07T18:26:26.423Z,17.60
2022-09-07T18:29:04.306Z,13.80
2022-09-07T18:31:34.978Z,12.20
2022-09-07T18:34:03.852Z,18.70
2022-09-07T18:36:34.399Z,17.50
2022-09-07T18:39:04.912Z,16.10
2022-09-07T18:41:35.002Z,14.20
2022-09-07T18:44:04.402Z,15.10
2022-09-07T18:46:34.678Z,17.10
2022-09-07T18:49:03.728Z,13.90
2022-09-07T18:52:51.557Z,13.30
2022-09-07T18:54:24.545Z,14.80
2022-09-07T18:56:54.375Z,13.80
2022-09-07T18:59:26.648Z,13.10
2022-09-07T19:02:01.348Z,12.20
2022-09-07T19:07:21.269Z,13.00
2022-09-07T19:09:50.893Z,15.10
2022-09-07T19:12:19.394Z,14.00
2022-09-07T19:14:48.961Z,12.50
2022-09-07T19:17:18.241Z,13.30
2022-09-07T19:19:49.302Z,12.50
2022-09-07T19:22:18.152Z,11.70
2022-09-07T19:24:47.270Z,12.70
2022-09-07T19:27:16.429Z,13.10
2022-09-07T19:29:45.328Z,15.00
2022-09-07T19:32:14.093Z,13.20
2022-09-07T19:34:44.162Z,16.20
2022-09-07T19:37:14.351Z,15.40
2022-09-07T19:39:42.903Z,16.20
2022-09-07T19:42:11.906Z,13.90
2022-09-07T19:44:41.099Z,13.60
2022-09-07T19:47:10.203Z,15.30
2022-09-07T19:49:39.191Z,17.40
2022-09-07T19:52:11.239Z,21.30
2022-09-07T19:54:40.966Z,21.40
2022-09-07T19:57:10.493Z,16.30
2022-09-07T19:59:40.185Z,14.60
2022-09-07T20:02:10.745Z,13.80
2022-09-07T20:04:39.583Z,13.60
2022-09-07T20:07:08.995Z,12.60
2022-09-07T20:09:37.796Z,13.30
2022-09-07T20:12:08.667Z,14.10
2022-09-07T20:14:39.877Z,13.20
2022-09-07T20:17:08.870Z,11.70
2022-09-07T20:19:37.405Z,11.80
2022-09-07T20:22:07.087Z,13.10
2022-09-07T20:27:04.707Z,12.70
2022-09-07T20:29:33.944Z,13.30
2022-09-07T20:32:03.074Z,13.60
2022-09-07T20:34:32.685Z,13.00
2022-09-07T20:37:01.946Z,12.70
2022-09-07T20:39:31.991Z,12.20
2022-09-07T20:42:02.919Z,12.20
2022-09-07T20:44:31.803Z,12.70
2022-09-07T20:47:00.330Z,12.60
2022-09-07T20:49:31.434Z,13.00
2022-09-07T20:51:59.940Z,13.10
2022-09-07T20:54:28.459Z,14.30
2022-09-07T20:57:00.008Z,10.90
2022-09-07T20:59:30.912Z,12.20
2022-09-07T21:02:01.896Z,10.50
2022-09-07T21:04:30.716Z,11.70
2022-09-07T21:06:59.589Z,10.20
2022-09-07T21:09:28.804Z,11.90
2022-09-07T21:11:57.344Z,12.00
2022-09-07T21:14:26.285Z,11.80
2022-09-07T21:16:55.057Z,11.20
2022-09-07T21:19:23.526Z,11.20
2022-09-07T21:21:52.254Z,10.00
2022-09-07T21:24:23.657Z,11.20
2022-09-07T21:26:52.467Z,11.50
2022-09-07T21:29:25.528Z,11.10
2022-09-07T21:31:55.219Z,12.70
2022-09-07T21:34:24.549Z,11.00
2022-09-07T21:36:53.600Z,10.20
2022-09-07T21:39:23.233Z,10.90
2022-09-07T21:41:52.516Z,11.90
2022-09-07T21:44:22.173Z,12.40
2022-09-07T21:46:51.442Z,12.70
2022-09-07T21:49:19.973Z,13.60
2022-09-07T21:51:48.777Z,13.60
2022-09-07T21:54:17.521Z,13.00
2022-09-07T21:56:47.389Z,12.50
2022-09-07T21:59:16.430Z,12.10
2022-09-07T22:01:45.061Z,13.00
2022-09-07T22:04:14.242Z,13.40
2022-09-07T22:06:44.353Z,13.40
2022-09-07T22:09:12.825Z,13.00
2022-09-07T22:11:45.895Z,13.10
2022-09-07T22:14:16.385Z,12.50
2022-09-07T22:16:45.504Z,12.70
2022-09-07T22:19:14.160Z,11.60
2022-09-07T22:21:43.156Z,11.20
2022-09-07T22:24:12.871Z,12.30
2022-09-07T22:26:42.043Z,11.60
2022-09-07T22:29:12.613Z,10.30
2022-09-07T22:31:41.946Z,9.40
2022-09-07T22:34:10.576Z,11.20
2022-09-07T22:36:42.235Z,10.70
2022-09-07T22:39:14.843Z,10.60
2022-09-07T22:41:44.874Z,10.10
2022-09-07T22:44:16.690Z,10.00
2022-09-07T22:46:47.248Z,9.20
2022-09-07T22:49:17.236Z,9.40
2022-09-07T22:51:46.661Z,9.70
2022-09-07T22:54:15.648Z,10.70
2022-09-07T22:56:44.939Z,9.80
2022-09-07T22:59:14.219Z,10.00
2022-09-07T23:01:42.855Z,10.00
2022-09-07T23:04:13.332Z,9.30
2022-09-07T23:09:17.858Z,9.30
2022-09-07T23:11:48.303Z,9.20
2022-09-07T23:14:21.007Z,10.30
2022-09-07T23:16:50.227Z,10.50
2022-09-07T23:19:20.648Z,10.60
2022-09-07T23:21:49.939Z,11.60
2022-09-07T23:24:19.462Z,11.70
2022-09-07T23:26:48.290Z,10.20
2022-09-07T23:29:17.229Z,10.50
2022-09-07T23:31:47.283Z,11.40
2022-09-07T23:34:16.659Z,11.40
2022-09-07T23:36:45.465Z,11.90
2022-09-07T23:39:14.265Z,12.60
2022-09-07T23:41:43.279Z,12.40
2022-09-07T23:44:12.438Z,10.70
2022-09-07T23:46:41.299Z,12.10
2022-09-07T23:49:09.943Z,12.00
2022-09-07T23:51:38.655Z,12.10
2022-09-07T23:54:07.755Z,13.60
2022-09-07T23:56:38.216Z,12.80
2022-09-07T23:59:06.948Z,12.40
